createdAt,value
2023-04-01T00:00:30.594Z,2934.00
2023-04-01T00:01:30.664Z,2930.00
2023-04-01T00:02:30.805Z,2990.00
2023-04-01T00:03:30.974Z,3039.00
2023-04-01T00:04:31.841Z,3135.00
2023-04-01T00:05:31.322Z,3214.00
2023-04-01T00:06:31.124Z,3272.00
2023-04-01T00:07:31.225Z,3270.00
2023-04-01T00:08:31.345Z,3153.00
2023-04-01T00:09:31.417Z,3023.00
2023-04-01T00:10:31.557Z,3023.00
2023-04-01T00:11:31.545Z,3050.00
2023-04-01T00:12:31.602Z,3060.00
2023-04-01T00:13:31.673Z,3116.00
2023-04-01T00:14:31.715Z,3188.00
2023-04-01T00:15:31.887Z,3105.00
2023-04-01T00:16:31.958Z,3116.00
2023-04-01T00:17:32.034Z,3111.00
2023-04-01T00:18:32.153Z,3110.00
2023-04-01T00:19:32.205Z,3125.00
2023-04-01T00:20:32.272Z,3151.00
2023-04-01T00:21:32.392Z,3184.00
2023-04-01T00:22:32.450Z,3190.00
2023-04-01T00:23:32.517Z,3148.00
2023-04-01T00:24:32.621Z,3157.00
2023-04-01T00:25:33.067Z,3154.00
2023-04-01T00:26:32.791Z,3045.00
2023-04-01T00:27:32.940Z,2946.00
2023-04-01T00:28:32.998Z,2669.00
2023-04-01T00:29:33.095Z,2432.00
2023-04-01T00:30:33.174Z,2290.00
2023-04-01T00:31:33.303Z,2172.00
2023-04-01T00:32:33.367Z,2101.00
2023-04-01T00:33:33.457Z,2115.00
2023-04-01T00:34:33.592Z,2146.00
2023-04-01T00:35:33.930Z,2149.00
2023-04-01T00:36:33.797Z,2147.00
2023-04-01T00:37:33.786Z,2232.00
2023-04-01T00:38:33.914Z,2199.00
2023-04-01T00:39:33.875Z,2298.00
2023-04-01T00:40:33.926Z,2413.00
2023-04-01T00:41:33.984Z,2581.00
2023-04-01T00:42:34.047Z,2717.00
2023-04-01T00:43:34.102Z,2811.00
2023-04-01T00:44:34.172Z,2887.00
2023-04-01T00:45:34.374Z,2954.00
2023-04-01T00:46:34.292Z,2986.00
2023-04-01T00:47:34.344Z,3005.00
2023-04-01T00:48:34.424Z,3037.00
2023-04-01T00:49:34.505Z,3060.00
2023-04-01T00:50:34.576Z,3069.00
2023-04-01T00:51:34.638Z,3017.00
2023-04-01T00:52:34.767Z,2970.00
2023-04-01T00:53:34.808Z,2985.00
2023-04-01T00:54:34.896Z,2914.00
2023-04-01T00:55:34.930Z,2880.00
2023-04-01T00:56:35.023Z,2848.00
2023-04-01T00:57:35.136Z,2829.00
2023-04-01T00:58:35.313Z,2867.00
2023-04-01T00:59:35.358Z,2914.00
2023-04-01T01:00:35.465Z,3184.00
2023-04-01T01:01:35.519Z,3571.00
2023-04-01T01:02:35.649Z,3573.00
2023-04-01T01:03:35.591Z,3583.00
2023-04-01T01:04:35.655Z,3593.00
2023-04-01T01:05:48.139Z,3586.00
2023-04-01T01:06:36.760Z,3572.00
2023-04-01T01:07:35.800Z,3529.00
2023-04-01T01:08:35.836Z,3388.00
2023-04-01T01:09:35.903Z,3142.00
2023-04-01T01:10:35.948Z,3080.00
2023-04-01T01:11:42.543Z,3075.00
2023-04-01T01:12:37.050Z,3076.00
2023-04-01T01:13:36.079Z,3080.00
2023-04-01T01:14:36.126Z,3091.00
2023-04-01T01:15:36.151Z,3078.00
2023-04-01T01:16:36.257Z,3098.00
2023-04-01T01:17:36.257Z,3157.00
2023-04-01T01:18:36.277Z,3231.00
2023-04-01T01:19:36.327Z,3372.00
2023-04-01T01:20:36.368Z,3348.00
2023-04-01T01:21:36.412Z,3343.00
2023-04-01T01:22:36.448Z,3309.00
2023-04-01T01:23:36.511Z,3287.00
2023-04-01T01:24:36.541Z,3251.00
2023-04-01T01:25:36.580Z,3245.00
2023-04-01T01:26:36.617Z,3145.00
2023-04-01T01:27:36.662Z,3067.00
2023-04-01T01:28:36.802Z,2971.00
2023-04-01T01:29:36.810Z,2789.00
2023-04-01T01:30:36.908Z,2670.00
2023-04-01T01:31:36.968Z,2639.00
2023-04-01T01:32:37.203Z,2644.00
2023-04-01T01:33:37.200Z,2691.00
2023-04-01T01:34:37.210Z,2751.00
2023-04-01T01:35:37.273Z,2744.00
2023-04-01T01:36:37.323Z,2790.00
2023-04-01T01:37:37.402Z,2743.00
2023-04-01T01:38:37.472Z,2660.00
2023-04-01T01:39:37.561Z,2615.00
2023-04-01T01:40:37.641Z,2562.00
2023-04-01T01:41:37.709Z,2559.00
2023-04-01T01:42:37.777Z,2592.00
2023-04-01T01:43:37.851Z,2661.00
2023-04-01T01:44:37.935Z,2755.00
2023-04-01T01:45:37.971Z,2833.00
2023-04-01T01:46:38.105Z,2892.00
2023-04-01T01:47:38.165Z,2911.00
2023-04-01T01:48:38.189Z,2799.00
2023-04-01T01:49:38.320Z,2799.00
2023-04-01T01:50:38.381Z,2877.00
2023-04-01T01:51:38.472Z,2865.00
2023-04-01T01:52:38.565Z,2910.00
2023-04-01T01:53:38.644Z,2920.00
2023-04-01T01:54:38.719Z,2967.00
2023-04-01T01:55:38.829Z,3027.00
2023-04-01T01:56:38.840Z,3041.00
2023-04-01T01:57:39.044Z,3070.00
2023-04-01T01:58:39.070Z,3077.00
2023-04-01T01:59:39.150Z,3134.00
2023-04-01T02:00:39.225Z,3103.00
2023-04-01T02:01:39.367Z,3068.00
2023-04-01T02:02:39.364Z,3113.00
2023-04-01T02:03:39.502Z,3184.00
2023-04-01T02:04:39.589Z,3251.00
2023-04-01T02:05:39.656Z,3233.00
2023-04-01T02:06:39.732Z,3192.00
2023-04-01T02:07:39.794Z,3157.00
2023-04-01T02:08:39.931Z,3085.00
2023-04-01T02:09:39.932Z,3016.00
2023-04-01T02:10:40.045Z,2993.00
2023-04-01T02:11:40.093Z,2983.00
2023-04-01T02:12:40.168Z,2980.00
2023-04-01T02:13:40.230Z,2979.00
2023-04-01T02:14:40.283Z,2953.00
2023-04-01T02:15:40.860Z,2972.00
2023-04-01T02:16:40.397Z,3059.00
2023-04-01T02:17:40.457Z,3163.00
2023-04-01T02:18:40.538Z,3252.00
2023-04-01T02:19:40.607Z,3232.00
2023-04-01T02:20:40.663Z,3240.00
2023-04-01T02:21:40.751Z,3301.00
2023-04-01T02:22:40.859Z,3298.00
2023-04-01T02:23:40.942Z,3246.00
2023-04-01T02:24:41.044Z,3248.00
2023-04-01T02:25:41.133Z,3231.00
2023-04-01T02:26:41.218Z,3202.00
2023-04-01T02:27:41.268Z,3205.00
2023-04-01T02:28:41.286Z,3209.00
2023-04-01T02:29:41.325Z,3173.00
2023-04-01T02:30:41.420Z,3038.00
2023-04-01T02:31:41.485Z,3095.00
2023-04-01T02:32:41.473Z,3190.00
2023-04-01T02:33:41.526Z,3261.00
2023-04-01T02:34:41.603Z,3337.00
2023-04-01T02:35:41.642Z,3326.00
2023-04-01T02:36:41.675Z,3325.00
2023-04-01T02:37:41.712Z,3358.00
2023-04-01T02:38:41.767Z,3197.00
2023-04-01T02:39:41.898Z,3116.00
2023-04-01T02:40:41.967Z,3074.00
2023-04-01T02:41:42.082Z,3213.00
2023-04-01T02:42:42.254Z,3368.00
2023-04-01T02:43:42.319Z,3493.00
2023-04-01T02:44:42.408Z,3569.00
2023-04-01T02:45:42.521Z,3500.00
2023-04-01T02:46:42.666Z,3337.00
2023-04-01T02:47:42.705Z,3235.00
2023-04-01T02:48:42.825Z,3185.00
2023-04-01T02:49:42.863Z,3228.00
2023-04-01T02:50:43.046Z,3229.00
2023-04-01T02:51:43.144Z,3223.00
2023-04-01T02:52:43.220Z,3249.00
2023-04-01T02:53:43.301Z,3304.00
2023-04-01T02:54:43.401Z,3425.00
2023-04-01T02:55:43.532Z,3493.00
2023-04-01T02:56:43.636Z,3540.00
2023-04-01T02:57:43.728Z,3527.00
2023-04-01T02:58:43.859Z,3500.00
2023-04-01T02:59:43.926Z,3501.00
2023-04-01T03:00:43.988Z,3454.00
2023-04-01T03:01:44.859Z,3335.00
2023-04-01T03:02:44.124Z,3257.00
2023-04-01T03:03:45.162Z,3228.00
2023-04-01T03:04:44.121Z,3237.00
2023-04-01T03:05:44.179Z,3265.00
2023-04-01T03:06:44.227Z,3311.00
2023-04-01T03:07:44.292Z,3426.00
2023-04-01T03:08:44.339Z,3430.00
2023-04-01T03:09:44.409Z,3452.00
2023-04-01T03:10:44.418Z,3481.00
2023-04-01T03:11:44.458Z,3481.00
2023-04-01T03:12:44.529Z,3513.00
2023-04-01T03:13:44.545Z,3526.00
2023-04-01T03:14:44.593Z,3514.00
2023-04-01T03:15:44.694Z,3487.00
2023-04-01T03:16:44.715Z,3497.00
2023-04-01T03:17:44.762Z,3511.00
2023-04-01T03:18:44.780Z,3476.00
2023-04-01T03:19:45.014Z,3475.00
2023-04-01T03:20:45.800Z,3455.00
2023-04-01T03:21:44.998Z,3417.00
2023-04-01T03:22:45.131Z,3409.00
2023-04-01T03:23:45.188Z,3467.00
2023-04-01T03:24:45.294Z,3567.00
2023-04-01T03:25:45.413Z,3593.00
2023-04-01T03:26:45.611Z,3582.00
2023-04-01T03:27:45.586Z,3587.00
2023-04-01T03:28:45.631Z,3604.00
2023-04-01T03:29:45.744Z,3615.00
2023-04-01T03:30:45.803Z,3568.00
2023-04-01T03:31:45.907Z,3516.00
2023-04-01T03:32:46.897Z,3530.00
2023-04-01T03:33:45.928Z,3525.00
2023-04-01T03:34:46.812Z,3476.00
2023-04-01T03:35:46.022Z,3424.00
2023-04-01T03:36:46.201Z,3459.00
2023-04-01T03:37:46.126Z,3479.00
2023-04-01T03:38:46.230Z,3465.00
2023-04-01T03:39:46.338Z,3397.00
2023-04-01T03:40:46.495Z,3401.00
2023-04-01T03:41:46.478Z,3441.00
2023-04-01T03:42:46.566Z,3430.00
2023-04-01T03:43:46.707Z,3475.00
2023-04-01T03:44:46.752Z,3510.00
2023-04-01T03:45:46.923Z,3532.00
2023-04-01T03:46:46.991Z,3546.00
2023-04-01T03:47:47.080Z,3550.00
2023-04-01T03:48:47.081Z,3543.00
2023-04-01T03:49:47.206Z,3520.00
2023-04-01T03:50:47.272Z,3427.00
2023-04-01T03:51:47.390Z,3315.00
2023-04-01T03:52:47.464Z,3220.00
2023-04-01T03:53:47.580Z,3118.00
2023-04-01T03:54:47.656Z,3059.00
2023-04-01T03:55:47.781Z,2999.00
2023-04-01T03:56:47.871Z,2923.00
2023-04-01T03:57:47.964Z,2871.00
2023-04-01T03:58:48.028Z,3076.00
2023-04-01T03:59:48.144Z,3285.00
2023-04-01T04:00:48.222Z,3362.00
2023-04-01T04:01:48.285Z,3439.00
2023-04-01T04:02:48.511Z,3478.00
2023-04-01T04:03:48.561Z,3557.00
2023-04-01T04:04:48.640Z,3590.00
2023-04-01T04:05:48.670Z,3589.00
2023-04-01T04:06:48.749Z,3593.00
2023-04-01T04:07:48.845Z,3636.00
2023-04-01T04:08:48.942Z,3683.00
2023-04-01T04:09:49.050Z,3676.00
2023-04-01T04:10:49.134Z,3708.00
2023-04-01T04:11:49.269Z,3709.00
2023-04-01T04:12:49.372Z,3726.00
2023-04-01T04:13:49.502Z,3726.00
2023-04-01T04:14:50.328Z,3732.00
2023-04-01T04:15:49.701Z,3700.00
2023-04-01T04:16:50.301Z,3695.00
2023-04-01T04:17:49.905Z,3689.00
2023-04-01T04:18:49.930Z,3677.00
2023-04-01T04:19:50.005Z,3655.00
2023-04-01T04:20:50.088Z,3550.00
2023-04-01T04:21:50.172Z,3471.00
2023-04-01T04:22:50.328Z,3403.00
2023-04-01T04:23:50.438Z,3564.00
2023-04-01T04:24:51.322Z,3627.00
2023-04-01T04:25:50.643Z,3560.00
2023-04-01T04:26:50.730Z,3501.00
2023-04-01T04:27:50.784Z,3487.00
2023-04-01T04:28:50.854Z,3407.00
2023-04-01T04:29:50.970Z,3479.00
2023-04-01T04:30:51.047Z,3600.00
2023-04-01T04:31:51.182Z,3749.00
2023-04-01T04:32:51.248Z,3957.00
2023-04-01T04:33:51.270Z,4122.00
2023-04-01T04:34:51.316Z,4478.00
2023-04-01T04:35:51.393Z,4537.00
2023-04-01T04:36:51.470Z,4581.00
2023-04-01T04:37:51.526Z,4642.00
2023-04-01T04:38:51.681Z,4679.00
2023-04-01T04:39:51.677Z,4768.00
2023-04-01T04:40:51.743Z,4708.00
2023-04-01T04:41:52.441Z,4546.00
2023-04-01T04:42:51.968Z,4454.00
2023-04-01T04:43:52.093Z,4344.00
2023-04-01T04:44:52.166Z,4222.00
2023-04-01T04:45:52.223Z,4128.00
2023-04-01T04:46:52.396Z,4145.00
2023-04-01T04:47:53.348Z,4151.00
2023-04-01T04:48:52.498Z,4025.00
2023-04-01T04:49:52.581Z,3988.00
2023-04-01T04:50:52.700Z,3963.00
2023-04-01T04:51:52.803Z,4000.00
2023-04-01T04:52:52.876Z,3947.00
2023-04-01T04:53:53.369Z,3951.00
2023-04-01T04:54:53.041Z,3975.00
2023-04-01T04:55:53.126Z,4036.00
2023-04-01T04:56:53.383Z,4095.00
2023-04-01T04:57:53.258Z,4104.00
2023-04-01T04:58:53.344Z,4179.00
2023-04-01T04:59:53.421Z,4192.00
2023-04-01T05:00:53.516Z,4228.00
2023-04-01T05:01:53.590Z,4156.00
2023-04-01T05:02:53.817Z,4100.00
2023-04-01T05:03:53.796Z,4109.00
2023-04-01T05:04:54.320Z,4050.00
2023-04-01T05:05:54.812Z,4053.00
2023-04-01T05:06:53.948Z,4080.00
2023-04-01T05:07:54.053Z,4113.00
2023-04-01T05:08:54.208Z,4127.00
2023-04-01T05:09:54.369Z,4120.00
2023-04-01T05:10:54.320Z,4114.00
2023-04-01T05:11:54.370Z,4111.00
2023-04-01T05:12:54.456Z,4103.00
2023-04-01T05:13:55.316Z,4113.00
2023-04-01T05:14:54.627Z,4256.00
2023-04-01T05:15:54.681Z,4186.00
2023-04-01T05:16:54.873Z,4396.00
2023-04-01T05:17:55.002Z,4529.00
2023-04-01T05:18:54.969Z,4494.00
2023-04-01T05:19:55.056Z,4523.00
2023-04-01T05:20:55.156Z,4523.00
2023-04-01T05:21:55.270Z,4555.00
2023-04-01T05:22:55.361Z,4593.00
2023-04-01T05:23:55.433Z,4610.00
2023-04-01T05:24:55.527Z,4494.00
2023-04-01T05:25:55.599Z,4438.00
2023-04-01T05:26:56.969Z,4394.00
2023-04-01T05:27:56.319Z,4399.00
2023-04-01T05:28:55.896Z,4404.00
2023-04-01T05:29:55.992Z,4368.00
2023-04-01T05:30:56.094Z,4349.00
2023-04-01T05:31:56.125Z,4349.00
2023-04-01T05:32:56.249Z,4356.00
2023-04-01T05:33:56.257Z,4357.00
2023-04-01T05:34:56.276Z,4361.00
2023-04-01T05:35:56.333Z,4370.00
2023-04-01T05:36:56.351Z,4391.00
2023-04-01T05:37:56.389Z,4422.00
2023-04-01T05:38:56.515Z,4448.00
2023-04-01T05:39:56.441Z,4500.00
2023-04-01T05:40:56.477Z,4528.00
2023-04-01T05:41:56.497Z,4542.00
2023-04-01T05:42:56.556Z,4604.00
2023-04-01T05:43:56.597Z,4514.00
2023-04-01T05:44:56.628Z,4419.00
2023-04-01T05:45:56.742Z,4233.00
2023-04-01T05:46:56.771Z,4245.00
2023-04-01T05:47:56.925Z,4347.00
2023-04-01T05:48:56.968Z,4344.00
2023-04-01T05:49:57.057Z,4380.00
2023-04-01T05:50:57.135Z,4424.00
2023-04-01T05:51:57.224Z,4457.00
2023-04-01T05:52:57.321Z,4497.00
2023-04-01T05:53:57.363Z,4633.00
2023-04-01T05:54:57.417Z,4861.00
2023-04-01T05:55:57.468Z,4817.00
2023-04-01T05:56:57.588Z,4870.00
2023-04-01T05:57:57.633Z,4809.00
2023-04-01T05:58:57.704Z,4796.00
2023-04-01T05:59:57.766Z,4752.00
2023-04-01T06:01:08.768Z,4701.00
2023-04-01T06:01:59.842Z,4702.00
2023-04-01T06:02:57.933Z,4682.00
2023-04-01T06:03:57.928Z,4668.00
2023-04-01T06:04:57.985Z,4640.00
2023-04-01T06:05:57.906Z,4620.00
2023-04-01T06:06:57.934Z,4595.00
2023-04-01T06:07:58.018Z,4609.00
2023-04-01T06:08:58.093Z,4593.00
2023-04-01T06:09:58.172Z,4628.00
2023-04-01T06:10:58.262Z,4600.00
2023-04-01T06:11:58.387Z,4591.00
2023-04-01T06:12:58.405Z,4462.00
2023-04-01T06:13:58.483Z,4385.00
2023-04-01T06:14:58.519Z,4304.00
2023-04-01T06:15:58.586Z,4354.00
2023-04-01T06:16:58.590Z,4414.00
2023-04-01T06:17:58.764Z,4383.00
2023-04-01T06:18:58.762Z,4339.00
2023-04-01T06:19:58.825Z,4300.00
2023-04-01T06:20:58.913Z,4283.00
2023-04-01T06:21:58.971Z,4275.00
2023-04-01T06:22:59.051Z,4283.00
2023-04-01T06:23:59.094Z,4248.00
2023-04-01T06:24:59.819Z,4194.00
2023-04-01T06:25:59.229Z,4259.00
2023-04-01T06:26:59.230Z,4298.00
2023-04-01T06:27:59.275Z,4273.00
2023-04-01T06:28:59.320Z,4267.00
2023-04-01T06:29:59.330Z,4188.00
2023-04-01T06:30:59.379Z,4086.00
2023-04-01T06:31:59.394Z,4037.00
2023-04-01T06:32:59.445Z,4024.00
2023-04-01T06:33:59.410Z,4068.00
2023-04-01T06:34:59.423Z,4114.00
2023-04-01T06:35:59.529Z,4232.00
2023-04-01T06:36:59.502Z,4315.00
2023-04-01T06:37:59.493Z,4314.00
2023-04-01T06:38:59.495Z,4302.00
2023-04-01T06:39:59.545Z,4284.00
2023-04-01T06:40:59.537Z,4228.00
2023-04-01T06:41:59.568Z,4228.00
2023-04-01T06:42:59.652Z,4235.00
2023-04-01T06:43:59.744Z,4226.00
2023-04-01T06:44:59.754Z,4226.00
2023-04-01T06:46:00.840Z,4151.00
2023-04-01T06:47:00.837Z,4015.00
2023-04-01T06:47:59.961Z,4007.00
2023-04-01T06:48:59.965Z,4174.00
2023-04-01T06:50:00.008Z,4015.00
2023-04-01T06:51:00.079Z,3701.00
2023-04-01T06:52:00.129Z,3623.00
2023-04-01T06:53:00.166Z,3841.00
2023-04-01T06:54:00.183Z,3998.00
2023-04-01T06:55:00.260Z,4027.00
2023-04-01T06:56:00.298Z,3969.00
2023-04-01T06:57:00.350Z,3914.00
2023-04-01T06:58:00.416Z,3856.00
2023-04-01T06:59:00.530Z,4086.00
2023-04-01T07:00:00.420Z,4267.00
2023-04-01T07:01:00.467Z,4283.00
2023-04-01T07:02:00.513Z,3987.00
2023-04-01T07:03:00.626Z,3812.00
2023-04-01T07:04:00.694Z,3761.00
2023-04-01T07:05:00.816Z,3816.00
2023-04-01T07:06:00.698Z,3897.00
2023-04-01T07:07:00.796Z,3929.00
2023-04-01T07:08:00.827Z,4027.00
2023-04-01T07:09:01.791Z,4079.00
2023-04-01T07:10:00.869Z,3959.00
2023-04-01T07:11:00.889Z,3741.00
2023-04-01T07:12:00.888Z,3487.00
2023-04-01T07:13:00.896Z,3341.00
2023-04-01T07:14:00.963Z,3399.00
2023-04-01T07:15:00.914Z,3052.00
2023-04-01T07:16:00.880Z,2695.00
2023-04-01T07:17:00.958Z,2667.00
2023-04-01T07:18:00.895Z,2666.00
2023-04-01T07:19:00.871Z,2696.00
2023-04-01T07:20:00.901Z,2763.00
2023-04-01T07:21:00.866Z,2784.00
2023-04-01T07:22:00.853Z,2583.00
2023-04-01T07:23:00.852Z,2504.00
2023-04-01T07:24:00.863Z,2529.00
2023-04-01T07:25:00.855Z,2735.00
2023-04-01T07:26:00.880Z,2970.00
2023-04-01T07:27:00.849Z,3078.00
2023-04-01T07:28:00.842Z,3324.00
2023-04-01T07:29:00.840Z,3433.00
2023-04-01T07:30:00.837Z,3357.00
2023-04-01T07:31:00.845Z,3046.00
2023-04-01T07:32:00.813Z,3272.00
2023-04-01T07:33:00.814Z,3477.00
2023-04-01T07:34:00.838Z,3568.00
2023-04-01T07:35:00.853Z,3736.00
2023-04-01T07:36:00.854Z,3586.00
2023-04-01T07:37:00.785Z,3345.00
2023-04-01T07:38:00.803Z,3191.00
2023-04-01T07:39:00.805Z,3255.00
2023-04-01T07:40:00.765Z,3288.00
2023-04-01T07:41:00.765Z,2853.00
2023-04-01T07:42:00.764Z,3078.00
2023-04-01T07:43:00.819Z,2916.00
2023-04-01T07:44:00.856Z,2724.00
2023-04-01T07:45:00.891Z,2711.00
2023-04-01T07:46:00.973Z,2524.00
2023-04-01T07:47:00.968Z,2461.00
2023-04-01T07:48:01.004Z,2266.00
2023-04-01T07:49:00.967Z,2309.00
2023-04-01T07:50:01.011Z,2338.00
2023-04-01T07:51:00.998Z,1602.00
2023-04-01T07:52:00.991Z,1268.00
2023-04-01T07:53:00.975Z,875.00
2023-04-01T07:54:00.945Z,582.00
2023-04-01T07:55:00.912Z,514.00
2023-04-01T07:56:00.925Z,530.00
2023-04-01T07:57:00.958Z,515.00
2023-04-01T07:58:00.957Z,500.00
2023-04-01T07:59:01.342Z,467.00
2023-04-01T08:00:00.904Z,400.00
2023-04-01T08:01:00.868Z,400.00
2023-04-01T08:02:00.868Z,403.00
2023-04-01T08:03:00.964Z,406.00
2023-04-01T08:04:01.085Z,420.00
2023-04-01T08:05:00.947Z,404.00
2023-04-01T08:06:00.957Z,501.00
2023-04-01T08:07:00.872Z,617.00
2023-04-01T08:08:00.874Z,405.00
2023-04-01T08:09:00.846Z,581.00
2023-04-01T08:10:00.882Z,597.00
2023-04-01T08:11:00.906Z,541.00
2023-04-01T08:12:00.846Z,400.00
2023-04-01T08:13:00.885Z,400.00
2023-04-01T08:14:00.889Z,400.00
2023-04-01T08:15:00.878Z,400.00
2023-04-01T08:16:00.898Z,400.00
2023-04-01T08:17:00.805Z,400.00
2023-04-01T08:18:00.806Z,400.00
2023-04-01T08:19:00.750Z,400.00
2023-04-01T08:20:00.763Z,444.00
2023-04-01T08:21:00.724Z,520.00
2023-04-01T08:22:00.721Z,509.00
2023-04-01T08:23:00.648Z,504.00
2023-04-01T08:24:00.652Z,465.00
2023-04-01T08:25:00.572Z,496.00
2023-04-01T08:26:00.566Z,500.00
2023-04-01T08:27:00.584Z,578.00
2023-04-01T08:28:00.560Z,558.00
2023-04-01T08:29:00.614Z,500.00
2023-04-01T08:30:00.570Z,540.00
2023-04-01T08:31:00.559Z,748.00
2023-04-01T08:32:01.401Z,579.00
2023-04-01T08:33:00.599Z,521.00
2023-04-01T08:34:00.564Z,664.00
2023-04-01T08:35:00.502Z,639.00
2023-04-01T08:36:00.582Z,639.00
2023-04-01T08:37:00.503Z,607.00
2023-04-01T08:38:00.459Z,423.00
2023-04-01T08:39:00.425Z,400.00
2023-04-01T08:40:00.393Z,400.00
2023-04-01T08:41:00.310Z,424.00
2023-04-01T08:42:00.252Z,400.00
2023-04-01T08:43:00.200Z,400.00
2023-04-01T08:44:00.215Z,400.00
2023-04-01T08:45:00.082Z,445.00
2023-04-01T08:46:00.084Z,526.00
2023-04-01T08:47:00.011Z,459.00
2023-04-01T08:47:59.951Z,452.00
2023-04-01T08:48:59.855Z,448.00
2023-04-01T08:49:59.870Z,488.00
2023-04-01T08:50:59.864Z,446.00
2023-04-01T08:51:59.834Z,476.00
2023-04-01T08:52:59.809Z,558.00
2023-04-01T08:53:59.803Z,483.00
2023-04-01T08:54:59.818Z,500.00
2023-04-01T08:55:59.778Z,506.00
2023-04-01T08:56:59.816Z,551.00
2023-04-01T08:57:59.676Z,589.00
2023-04-01T08:58:59.672Z,614.00
2023-04-01T08:59:59.643Z,728.00
2023-04-01T09:00:59.623Z,1058.00
2023-04-01T09:01:59.638Z,1050.00
2023-04-01T09:02:59.708Z,986.00
2023-04-01T09:03:59.743Z,1265.00
2023-04-01T09:04:59.681Z,1397.00
2023-04-01T09:05:59.658Z,1541.00
2023-04-01T09:06:59.650Z,1601.00
2023-04-01T09:07:59.638Z,1307.00
2023-04-01T09:08:59.604Z,1435.00
2023-04-01T09:09:59.619Z,1322.00
2023-04-01T09:10:59.622Z,1360.00
2023-04-01T09:11:59.562Z,1360.00
2023-04-01T09:12:59.477Z,1316.00
2023-04-01T09:13:59.466Z,1353.00
2023-04-01T09:14:59.477Z,1219.00
2023-04-01T09:16:00.378Z,1166.00
2023-04-01T09:16:59.396Z,1231.00
2023-04-01T09:17:59.407Z,1225.00
2023-04-01T09:18:59.358Z,1138.00
2023-04-01T09:19:59.353Z,936.00
2023-04-01T09:20:59.307Z,990.00
2023-04-01T09:21:59.294Z,1279.00
2023-04-01T09:22:59.261Z,1167.00
2023-04-01T09:23:59.237Z,962.00
2023-04-01T09:24:59.370Z,863.00
2023-04-01T09:25:59.863Z,1054.00
2023-04-01T09:26:59.787Z,856.00
2023-04-01T09:27:59.063Z,946.00
2023-04-01T09:28:59.050Z,902.00
2023-04-01T09:29:59.048Z,895.00
2023-04-01T09:30:59.891Z,641.00
2023-04-01T09:31:58.969Z,626.00
2023-04-01T09:32:58.982Z,710.00
2023-04-01T09:33:59.378Z,1025.00
2023-04-01T09:34:58.839Z,961.00
2023-04-01T09:35:58.819Z,737.00
2023-04-01T09:37:00.395Z,632.00
2023-04-01T09:37:58.789Z,614.00
2023-04-01T09:38:59.369Z,632.00
2023-04-01T09:39:58.702Z,906.00
2023-04-01T09:40:58.636Z,1043.00
2023-04-01T09:41:58.601Z,948.00
2023-04-01T09:42:58.564Z,739.00
2023-04-01T09:43:59.365Z,580.00
2023-04-01T09:44:58.613Z,522.00
2023-04-01T09:45:58.629Z,562.00
2023-04-01T09:46:59.360Z,534.00
2023-04-01T09:47:58.512Z,551.00
2023-04-01T09:48:59.361Z,554.00
2023-04-01T09:49:58.353Z,556.00
2023-04-01T09:50:58.866Z,578.00
2023-04-01T09:51:58.879Z,560.00
2023-04-01T09:52:58.333Z,607.00
2023-04-01T09:53:58.967Z,804.00
2023-04-01T09:54:58.285Z,1219.00
2023-04-01T09:55:58.930Z,1225.00
2023-04-01T09:56:58.290Z,963.00
2023-04-01T09:57:58.243Z,951.00
2023-04-01T09:58:58.207Z,634.00
2023-04-01T09:59:58.223Z,633.00
2023-04-01T10:00:59.880Z,574.00
2023-04-01T10:01:58.183Z,588.00
2023-04-01T10:02:58.185Z,678.00
2023-04-01T10:03:58.108Z,672.00
2023-04-01T10:04:58.116Z,645.00
2023-04-01T10:05:58.122Z,626.00
2023-04-01T10:06:58.088Z,589.00
2023-04-01T10:07:58.872Z,545.00
2023-04-01T10:08:58.024Z,547.00
2023-04-01T10:09:58.369Z,592.00
2023-04-01T10:10:58.029Z,679.00
2023-04-01T10:11:58.029Z,615.00
2023-04-01T10:12:58.001Z,618.00
2023-04-01T10:13:58.031Z,549.00
2023-04-01T10:14:58.091Z,519.00
2023-04-01T10:16:02.896Z,544.00
2023-04-01T10:16:58.884Z,473.00
2023-04-01T10:17:57.883Z,489.00
2023-04-01T10:18:58.371Z,474.00
2023-04-01T10:19:57.735Z,454.00
2023-04-01T10:20:57.644Z,400.00
2023-04-01T10:21:57.634Z,400.00
2023-04-01T10:22:57.531Z,472.00
2023-04-01T10:23:57.541Z,500.00
2023-04-01T10:24:58.359Z,504.00
2023-04-01T10:25:57.401Z,539.00
2023-04-01T10:26:57.313Z,537.00
2023-04-01T10:27:57.878Z,492.00
2023-04-01T10:28:57.229Z,444.00
2023-04-01T10:29:57.204Z,422.00
2023-04-01T10:30:57.247Z,407.00
2023-04-01T10:31:57.219Z,400.00
2023-04-01T10:32:58.897Z,452.00
2023-04-01T10:33:57.136Z,492.00
2023-04-01T10:34:57.035Z,500.00
2023-04-01T10:35:57.028Z,522.00
2023-04-01T10:36:57.873Z,529.00
2023-04-01T10:37:56.885Z,553.00
2023-04-01T10:38:56.871Z,556.00
2023-04-01T10:39:56.824Z,519.00
2023-04-01T10:40:56.832Z,499.00
2023-04-01T10:41:56.703Z,492.00
2023-04-01T10:42:56.642Z,492.00
2023-04-01T10:43:56.868Z,432.00
2023-04-01T10:44:56.611Z,421.00
2023-04-01T10:45:56.593Z,401.00
2023-04-01T10:46:57.415Z,418.00
2023-04-01T10:47:56.541Z,487.00
2023-04-01T10:48:56.468Z,574.00
2023-04-01T10:49:56.424Z,591.00
2023-04-01T10:50:56.981Z,630.00
2023-04-01T10:51:56.439Z,560.00
2023-04-01T10:52:56.426Z,637.00
2023-04-01T10:53:56.384Z,652.00
2023-04-01T10:54:56.418Z,707.00
2023-04-01T10:55:56.306Z,779.00
2023-04-01T10:56:56.297Z,674.00
2023-04-01T10:57:56.190Z,596.00
2023-04-01T10:58:56.159Z,563.00
2023-04-01T10:59:56.119Z,543.00
2023-04-01T11:00:56.225Z,593.00
2023-04-01T11:02:10.178Z,659.00
2023-04-01T11:02:57.091Z,625.00
2023-04-01T11:03:56.000Z,509.00
2023-04-01T11:04:55.856Z,479.00
2023-04-01T11:05:55.770Z,413.00
2023-04-01T11:06:55.666Z,400.00
2023-04-01T11:08:05.333Z,419.00
2023-04-01T11:08:56.549Z,422.00
2023-04-01T11:09:55.446Z,420.00
2023-04-01T11:10:55.415Z,400.00
2023-04-01T11:11:55.264Z,400.00
2023-04-01T11:12:55.184Z,400.00
2023-04-01T11:13:57.868Z,400.00
2023-04-01T11:14:55.022Z,400.00
2023-04-01T11:15:55.078Z,505.00
2023-04-01T11:16:54.821Z,442.00
2023-04-01T11:17:54.866Z,485.00
2023-04-01T11:18:54.644Z,521.00
2023-04-01T11:19:54.706Z,519.00
2023-04-01T11:20:54.476Z,561.00
2023-04-01T11:21:54.395Z,884.00
2023-04-01T11:22:54.267Z,1035.00
2023-04-01T11:24:04.547Z,916.00
2023-04-01T11:24:55.369Z,820.00
2023-04-01T11:25:54.237Z,798.00
2023-04-01T11:26:54.281Z,931.00
2023-04-01T11:27:54.152Z,831.00
2023-04-01T11:28:54.147Z,684.00
2023-04-01T11:30:00.201Z,615.00
2023-04-01T11:30:54.858Z,616.00
2023-04-01T11:31:54.340Z,595.00
2023-04-01T11:32:53.708Z,582.00
2023-04-01T11:33:53.533Z,559.00
2023-04-01T11:34:53.503Z,587.00
2023-04-01T11:35:53.365Z,643.00
2023-04-01T11:36:53.243Z,846.00
2023-04-01T11:37:53.113Z,1108.00
2023-04-01T11:38:53.052Z,1252.00
2023-04-01T11:39:53.019Z,768.00
2023-04-01T11:40:53.026Z,671.00
2023-04-01T11:41:52.961Z,660.00
2023-04-01T11:42:52.924Z,667.00
2023-04-01T11:43:52.874Z,785.00
2023-04-01T11:44:52.819Z,810.00
2023-04-01T11:45:52.810Z,895.00
2023-04-01T11:46:52.701Z,907.00
2023-04-01T11:47:52.692Z,948.00
2023-04-01T11:48:52.552Z,1070.00
2023-04-01T11:49:52.483Z,1419.00
2023-04-01T11:50:52.924Z,1414.00
2023-04-01T11:51:52.382Z,1536.00
2023-04-01T11:52:52.315Z,1649.00
2023-04-01T11:53:52.232Z,1466.00
2023-04-01T11:54:52.184Z,1259.00
2023-04-01T11:55:52.213Z,903.00
2023-04-01T11:56:52.150Z,890.00
2023-04-01T11:57:51.988Z,1024.00
2023-04-01T11:58:51.902Z,820.00
2023-04-01T11:59:51.836Z,954.00
2023-04-01T12:00:51.787Z,818.00
2023-04-01T12:01:51.758Z,729.00
2023-04-01T12:02:51.786Z,653.00
2023-04-01T12:03:51.659Z,494.00
2023-04-01T12:04:51.563Z,436.00
2023-04-01T12:05:51.437Z,545.00
2023-04-01T12:06:51.399Z,528.00
2023-04-01T12:07:51.337Z,484.00
2023-04-01T12:08:51.286Z,523.00
2023-04-01T12:09:51.153Z,549.00
2023-04-01T12:10:51.105Z,539.00
2023-04-01T12:11:51.059Z,540.00
2023-04-01T12:13:00.738Z,560.00